Wichita, KS (67203)

3:12 PM CDT on July 30, 2016 (GMT -0500)
Indian Hills | | Change Station

Elev 1329 ft 37.72 °N, 97.37 °W | Updated 11 minutes ago

Scattered Clouds
Scattered Clouds
93.0 °F
Feels Like 100 °F
N
2.2
Wind Variable Wind from South

Today
High -- | Low -- °F
--% Chance of Precip.
Yesterday
High -- | Low -- °F
Precip. -- in
Pressure 29.91 in
Visibility 10.0 miles
Clouds Few 20000 ft
Scattered Clouds 25000 ft
Heat Index 100 °F
Dew Point 70 °F
Humidity 48%
Rainfall 0.00 in
Snow Depth Not available.
6:31 AM 8:39 PM
Waning Crescent, 11% visible
METAR KICT 301953Z 17007KT 10SM FEW200 SCT250 31/19 A2996 RMK AO2 SLP128 T03060189
Pressure 29.91 in
Visibility 10.0 miles
Clouds Few 20000 ft
Scattered Clouds 25000 ft
Heat Index 100 °F
Dew Point 70 °F
Humidity 48%
Rainfall 0.00 in
Snow Depth Not available.
6:31 AM 8:39 PM
Waning Crescent, 11% visible
METAR KICT 301953Z 17007KT 10SM FEW200 SCT250 31/19 A2996 RMK AO2 SLP128 T03060189

10-Day Weather Forecast

Almanac

Astronomy

Jul. 30, 2016 Rise Set
Actual Time
Civil Twilight
Nautical Twilight
Astronomical Twilight
Moon
Length of Visible Light
Length of Day
Tomorrow will be .
, % of the Moon is Illuminated

Today's Extremes

State Highs State Lows

Community

WunderPhotos

Upload Photos

1,928,630 photos uploaded!

WunderBlog® & News

Nearby

Air Quality

  Air Quality AQ Index Pollutant
Not available.

Snow Depth

Station Depth Elevation

Earthquake Activity

City Distance Mag. Time & Date
Minimum magnitude displayed is 2.5.

Coastal Water Temperatures

Place Temperature

Stations

Nearby Weather Stations

Station Location Temp. Windchill Dew Point Humidity Wind Precip. Elev Updated Type
                   

Watches & Warnings

There are currently no watches in effect.